createdAt,value
2022-07-27T00:02:04.314Z,3.30
2022-07-27T00:04:51.128Z,3.25
2022-07-27T00:07:37.868Z,3.13
2022-07-27T00:10:24.516Z,3.35
2022-07-27T00:13:11.162Z,3.22
2022-07-27T00:15:59.394Z,3.05
2022-07-27T00:18:45.828Z,3.05
2022-07-27T00:21:32.388Z,2.88
2022-07-27T00:24:19.056Z,2.78
2022-07-27T00:27:05.493Z,2.83
2022-07-27T00:29:52.308Z,2.88
2022-07-27T00:32:40.569Z,2.97
2022-07-27T00:35:27.724Z,2.53
2022-07-27T00:38:14.472Z,2.75
2022-07-27T00:41:00.999Z,3.00
2022-07-27T00:43:52.613Z,2.40
2022-07-27T00:46:39.653Z,2.38
2022-07-27T00:49:28.505Z,2.47
2022-07-27T00:52:15.661Z,2.45
2022-07-27T00:55:02.548Z,2.13
2022-07-27T00:57:58.352Z,2.70
2022-07-27T01:00:46.843Z,2.58
2022-07-27T01:03:33.732Z,2.50
2022-07-27T01:06:26.842Z,2.58
2022-07-27T01:09:31.792Z,2.55
2022-07-27T01:12:21.584Z,2.95
2022-07-27T01:15:09.077Z,2.33
2022-07-27T01:17:56.034Z,2.78
2022-07-27T01:20:42.940Z,2.30
2022-07-27T01:23:33.289Z,2.53
2022-07-27T01:26:20.205Z,2.30
2022-07-27T01:29:07.195Z,2.50
2022-07-27T01:31:53.922Z,2.53
2022-07-27T01:34:40.706Z,2.40
2022-07-27T01:37:27.257Z,2.10
2022-07-27T01:40:15.731Z,3.00
2022-07-27T01:43:02.456Z,2.40
2022-07-27T01:45:49.184Z,2.30
2022-07-27T01:48:35.737Z,2.13
2022-07-27T01:51:22.335Z,2.20
2022-07-27T01:54:09.373Z,2.60
2022-07-27T01:56:57.538Z,2.20
2022-07-27T01:59:43.985Z,2.60
2022-07-27T02:02:30.789Z,2.00
2022-07-27T02:05:17.656Z,2.40
2022-07-27T02:08:04.634Z,2.38
2022-07-27T02:11:08.506Z,2.42
2022-07-27T02:13:56.505Z,2.13
2022-07-27T02:16:43.120Z,1.90
2022-07-27T02:19:29.977Z,2.03
2022-07-27T02:22:17.081Z,2.63
2022-07-27T02:25:04.437Z,1.83
2022-07-27T02:27:51.308Z,3.20
2022-07-27T02:30:39.292Z,2.72
2022-07-27T02:33:25.801Z,2.88
2022-07-27T02:36:12.762Z,3.05
2022-07-27T02:38:59.785Z,2.75
2022-07-27T02:41:47.640Z,2.63
2022-07-27T02:44:35.082Z,2.92
2022-07-27T02:47:23.403Z,3.20
2022-07-27T02:50:10.797Z,2.90
2022-07-27T02:52:57.653Z,3.30
2022-07-27T02:55:44.474Z,3.25
2022-07-27T02:58:31.269Z,2.47
2022-07-27T03:01:18.001Z,3.30
2022-07-27T03:04:06.527Z,3.38
2022-07-27T03:06:53.200Z,3.05
2022-07-27T03:09:39.766Z,2.85
2022-07-27T03:12:26.681Z,3.00
2022-07-27T03:15:13.485Z,3.10
2022-07-27T03:18:00.136Z,2.67
2022-07-27T03:20:48.153Z,3.22
2022-07-27T03:23:34.926Z,5.65
2022-07-27T03:26:21.759Z,6.75
2022-07-27T03:29:08.895Z,6.50
2022-07-27T03:31:55.818Z,6.35
2022-07-27T03:34:43.948Z,6.65
2022-07-27T03:37:32.369Z,4.65
2022-07-27T03:40:19.261Z,4.32
2022-07-27T03:43:05.840Z,4.38
2022-07-27T03:45:52.326Z,4.65
2022-07-27T03:48:39.664Z,5.07
2022-07-27T03:51:26.925Z,4.45
2022-07-27T03:54:15.252Z,5.78
2022-07-27T03:57:02.184Z,5.55
2022-07-27T03:59:51.506Z,5.95
2022-07-27T04:02:40.784Z,5.35
2022-07-27T04:05:29.404Z,5.28
2022-07-27T04:08:17.544Z,6.57
2022-07-27T04:11:05.395Z,7.65
2022-07-27T04:13:56.120Z,7.65
2022-07-27T04:16:42.702Z,8.63
2022-07-27T04:19:29.353Z,7.95
2022-07-27T04:22:16.146Z,7.68
2022-07-27T04:25:02.936Z,7.93
2022-07-27T04:27:51.053Z,7.53
2022-07-27T04:30:37.660Z,7.78
2022-07-27T04:33:24.227Z,6.72
2022-07-27T04:36:10.962Z,8.45
2022-07-27T04:38:59.775Z,8.73
2022-07-27T04:41:46.985Z,7.70
2022-07-27T04:44:35.190Z,7.63
2022-07-27T04:47:21.752Z,8.50
2022-07-27T04:50:10.065Z,8.82
2022-07-27T04:52:57.877Z,9.23
2022-07-27T04:55:46.852Z,12.00
2022-07-27T04:58:33.506Z,11.32
2022-07-27T05:01:22.963Z,12.88
2022-07-27T05:04:09.881Z,11.90
2022-07-27T05:06:56.284Z,13.40
2022-07-27T05:09:43.365Z,14.13
2022-07-27T05:12:30.198Z,14.13
2022-07-27T05:15:17.538Z,14.05
2022-07-27T05:18:05.601Z,14.68
2022-07-27T05:20:52.384Z,17.08
2022-07-27T05:23:39.164Z,14.88
2022-07-27T05:26:26.269Z,14.85
2022-07-27T05:29:13.573Z,16.73
2022-07-27T05:32:00.579Z,17.30
2022-07-27T05:34:48.503Z,18.58
2022-07-27T05:37:35.397Z,17.88
2022-07-27T05:40:22.091Z,17.42
2022-07-27T05:43:08.603Z,17.67
2022-07-27T05:45:55.891Z,18.13
2022-07-27T05:48:42.349Z,18.80
2022-07-27T05:51:31.525Z,14.68
2022-07-27T05:54:19.459Z,18.02
2022-07-27T05:57:06.315Z,17.27
2022-07-27T05:59:54.501Z,13.90
2022-07-27T06:02:41.656Z,16.77
2022-07-27T06:05:28.333Z,16.00
2022-07-27T06:08:15.515Z,15.40
2022-07-27T06:11:02.012Z,16.35
2022-07-27T06:13:50.603Z,13.95
2022-07-27T06:16:37.636Z,15.43
2022-07-27T06:19:24.408Z,14.80
2022-07-27T06:22:22.838Z,13.38
2022-07-27T06:25:11.121Z,13.95
2022-07-27T06:27:57.691Z,13.32
2022-07-27T06:30:44.305Z,13.02
2022-07-27T06:33:31.674Z,13.00
2022-07-27T06:36:18.177Z,14.57
2022-07-27T06:39:04.908Z,13.48
2022-07-27T06:41:57.920Z,12.57
2022-07-27T06:44:45.227Z,12.00
2022-07-27T06:47:31.775Z,15.00
2022-07-27T06:50:22.166Z,12.18
2022-07-27T06:53:08.893Z,12.25
2022-07-27T06:55:55.817Z,10.68
2022-07-27T06:58:43.657Z,12.32
2022-07-27T07:01:30.508Z,11.18
2022-07-27T07:04:17.743Z,9.50
2022-07-27T07:07:10.472Z,10.35
2022-07-27T07:09:57.013Z,10.85
2022-07-27T07:12:43.953Z,8.45
2022-07-27T07:15:34.212Z,7.53
2022-07-27T07:18:20.904Z,7.15
2022-07-27T07:21:08.102Z,8.05
2022-07-27T07:23:54.586Z,7.30
2022-07-27T07:26:41.190Z,8.63
2022-07-27T07:29:28.013Z,6.70
2022-07-27T07:32:16.261Z,9.38
2022-07-27T07:35:03.977Z,8.02
2022-07-27T07:37:50.932Z,9.20
2022-07-27T07:40:45.320Z,9.05
2022-07-27T07:43:32.077Z,9.57
2022-07-27T07:46:19.125Z,8.07
2022-07-27T07:49:07.236Z,7.45
2022-07-27T07:51:53.832Z,7.60
2022-07-27T07:54:40.540Z,7.63
2022-07-27T07:57:28.030Z,7.82
2022-07-27T08:00:15.606Z,6.47
2022-07-27T08:03:02.419Z,9.20
2022-07-27T08:05:50.927Z,7.60
2022-07-27T08:08:37.862Z,8.55
2022-07-27T08:11:24.381Z,8.23
2022-07-27T08:14:11.267Z,7.55
2022-07-27T08:16:57.842Z,6.28
2022-07-27T08:19:44.550Z,7.28
2022-07-27T08:22:32.521Z,6.25
2022-07-27T08:25:20.338Z,6.13
2022-07-27T08:28:07.596Z,6.38
2022-07-27T08:30:57.340Z,6.82
2022-07-27T08:33:44.104Z,6.47
2022-07-27T08:36:30.942Z,6.47
2022-07-27T08:39:52.967Z,7.57
2022-07-27T08:42:25.795Z,5.60
2022-07-27T08:45:16.053Z,6.63
2022-07-27T08:48:03.134Z,6.32
2022-07-27T08:50:50.352Z,6.00
2022-07-27T08:53:53.023Z,6.22
2022-07-27T08:56:41.873Z,6.78
2022-07-27T08:59:29.574Z,6.22
2022-07-27T09:02:16.694Z,5.43
2022-07-27T09:05:05.627Z,5.10
2022-07-27T09:07:52.989Z,6.43
2022-07-27T09:10:40.281Z,7.10
2022-07-27T09:13:30.068Z,6.97
2022-07-27T09:16:19.062Z,6.03
2022-07-27T09:19:08.216Z,6.32
2022-07-27T09:21:56.979Z,6.43
2022-07-27T09:25:02.884Z,6.93
2022-07-27T09:27:54.065Z,6.57
2022-07-27T09:30:44.242Z,7.43
2022-07-27T09:33:32.825Z,7.13
2022-07-27T09:36:22.819Z,6.38
2022-07-27T09:39:09.292Z,7.03
2022-07-27T09:41:57.678Z,5.93
2022-07-27T09:44:53.168Z,5.95
2022-07-27T09:47:42.028Z,7.03
2022-07-27T09:50:32.393Z,6.63
2022-07-27T09:53:42.533Z,6.78
2022-07-27T09:56:31.695Z,6.82
2022-07-27T09:59:20.296Z,7.00
2022-07-27T10:02:07.252Z,5.90
2022-07-27T10:04:56.506Z,8.57
2022-07-27T10:07:43.602Z,6.78
2022-07-27T10:10:30.623Z,7.47
2022-07-27T10:13:17.077Z,7.30
2022-07-27T10:16:05.760Z,5.60
2022-07-27T10:19:01.166Z,6.88
2022-07-27T10:21:50.897Z,6.13
2022-07-27T10:24:37.634Z,6.55
2022-07-27T10:27:28.986Z,6.13
2022-07-27T10:30:17.042Z,7.90
2022-07-27T10:33:15.790Z,6.75
2022-07-27T10:36:04.175Z,5.22
2022-07-27T10:38:56.430Z,6.35
2022-07-27T10:41:43.804Z,6.25
2022-07-27T10:44:31.418Z,5.38
2022-07-27T10:47:30.121Z,5.43
2022-07-27T10:50:32.310Z,5.40
2022-07-27T10:53:55.116Z,4.68
2022-07-27T10:56:49.711Z,6.10
2022-07-27T11:00:10.170Z,5.72
2022-07-27T11:02:59.517Z,5.10
2022-07-27T11:06:01.991Z,5.07
2022-07-27T11:09:53.141Z,4.95
2022-07-27T11:12:11.552Z,4.90
2022-07-27T11:14:59.681Z,5.05
2022-07-27T11:17:59.381Z,4.88
2022-07-27T11:20:50.221Z,4.75
2022-07-27T11:23:52.410Z,4.53
2022-07-27T11:26:41.620Z,5.20
2022-07-27T11:29:33.873Z,4.45
2022-07-27T11:32:36.508Z,4.57
2022-07-27T11:35:26.052Z,4.03
2022-07-27T11:38:12.614Z,4.82
2022-07-27T11:41:12.785Z,4.50
2022-07-27T11:44:07.929Z,4.47
2022-07-27T11:47:01.733Z,5.88
2022-07-27T11:49:48.898Z,4.53
2022-07-27T11:52:35.537Z,4.18
2022-07-27T11:55:22.103Z,3.92
2022-07-27T11:58:09.021Z,3.58
2022-07-27T12:00:55.969Z,3.25
2022-07-27T12:03:47.236Z,4.10
2022-07-27T12:06:38.884Z,3.50
2022-07-27T12:09:26.544Z,4.53
2022-07-27T12:12:20.127Z,3.70
2022-07-27T12:18:24.761Z,3.55
2022-07-27T12:21:18.836Z,3.88
2022-07-27T12:24:06.022Z,3.55
2022-07-27T12:27:07.100Z,3.85
2022-07-27T12:29:59.265Z,3.38
2022-07-27T12:32:46.520Z,3.20
2022-07-27T12:35:38.812Z,3.53
2022-07-27T12:38:38.567Z,3.10
2022-07-27T12:41:26.562Z,3.50
2022-07-27T12:44:15.654Z,3.75
2022-07-27T12:47:27.811Z,3.80
2022-07-27T12:50:16.887Z,4.15
2022-07-27T12:53:03.868Z,3.90
2022-07-27T12:55:51.892Z,3.90
2022-07-27T12:58:57.897Z,4.15
2022-07-27T13:01:44.820Z,4.90
2022-07-27T13:04:31.655Z,4.22
2022-07-27T13:07:19.591Z,4.75
2022-07-27T13:10:08.103Z,4.38
2022-07-27T13:12:56.504Z,4.50
2022-07-27T13:15:43.190Z,4.40
2022-07-27T13:18:29.855Z,4.50
2022-07-27T13:21:16.336Z,4.20
2022-07-27T13:24:03.253Z,4.97
2022-07-27T13:26:50.369Z,4.30
2022-07-27T13:29:38.558Z,4.25
2022-07-27T13:32:26.350Z,3.90
2022-07-27T13:35:13.534Z,4.05
2022-07-27T13:38:03.336Z,3.75
2022-07-27T13:40:50.174Z,4.00
2022-07-27T13:43:36.937Z,4.13
2022-07-27T13:46:25.220Z,4.38
2022-07-27T13:49:12.670Z,7.13
2022-07-27T13:52:01.848Z,5.13
2022-07-27T13:54:48.444Z,4.60
2022-07-27T13:57:35.500Z,4.90
2022-07-27T14:00:22.382Z,5.10
2022-07-27T14:03:11.465Z,4.68
2022-07-27T14:05:58.271Z,4.60
2022-07-27T14:08:46.979Z,4.70
2022-07-27T14:11:34.357Z,4.78
2022-07-27T14:14:21.772Z,4.05
2022-07-27T14:17:13.904Z,4.50
2022-07-27T14:20:02.125Z,4.50
2022-07-27T14:22:50.305Z,5.25
2022-07-27T14:25:36.768Z,5.05
2022-07-27T14:28:24.372Z,4.68
2022-07-27T14:31:13.100Z,4.93
2022-07-27T14:33:59.514Z,3.83
2022-07-27T14:36:47.656Z,4.32
2022-07-27T14:39:34.248Z,4.47
2022-07-27T14:42:23.652Z,4.90
2022-07-27T14:45:11.611Z,4.40
2022-07-27T14:47:58.428Z,5.18
2022-07-27T14:50:45.543Z,4.30
2022-07-27T14:53:33.676Z,4.53
2022-07-27T14:56:20.544Z,4.35
2022-07-27T14:59:07.033Z,4.38
2022-07-27T15:01:54.227Z,4.03
2022-07-27T15:04:41.076Z,4.25
2022-07-27T15:07:27.577Z,3.72
2022-07-27T15:10:15.625Z,4.25
2022-07-27T15:13:03.972Z,3.75
2022-07-27T15:15:52.724Z,5.55
2022-07-27T15:18:39.764Z,3.88
2022-07-27T15:21:26.774Z,3.90
2022-07-27T15:24:14.533Z,3.95
2022-07-27T15:27:02.653Z,3.95
2022-07-27T15:29:49.760Z,3.72
2022-07-27T15:32:36.473Z,3.83
2022-07-27T15:35:23.355Z,3.47
2022-07-27T15:38:10.049Z,3.45
2022-07-27T15:40:56.802Z,3.42
2022-07-27T15:43:48.623Z,3.80
2022-07-27T15:46:35.540Z,3.45
2022-07-27T15:49:22.200Z,3.40
2022-07-27T15:52:09.221Z,3.58
2022-07-27T15:54:55.946Z,3.40
2022-07-27T15:57:43.045Z,3.08
2022-07-27T16:00:35.530Z,3.45
2022-07-27T16:03:26.926Z,3.25
2022-07-27T16:06:15.829Z,3.47
2022-07-27T16:09:02.576Z,3.20
2022-07-27T16:11:49.395Z,3.10
2022-07-27T16:14:35.970Z,3.63
2022-07-27T16:17:24.268Z,3.50
2022-07-27T16:20:11.534Z,3.47
2022-07-27T16:22:58.087Z,3.60
2022-07-27T16:26:02.715Z,3.13
2022-07-27T16:28:53.205Z,3.60
2022-07-27T16:31:39.934Z,3.85
2022-07-27T16:34:29.451Z,3.65
2022-07-27T16:37:16.109Z,3.72
2022-07-27T16:40:02.853Z,3.83
2022-07-27T16:42:49.412Z,3.70
2022-07-27T16:45:35.947Z,3.58
2022-07-27T16:48:22.895Z,3.97
2022-07-27T16:51:11.820Z,3.67
2022-07-27T16:53:58.222Z,3.72
2022-07-27T16:56:44.755Z,4.10
2022-07-27T16:59:31.468Z,3.67
2022-07-27T17:02:18.802Z,4.15
2022-07-27T17:05:06.627Z,3.95
2022-07-27T17:07:55.061Z,3.95
2022-07-27T17:10:42.116Z,3.97
2022-07-27T17:13:33.679Z,4.35
2022-07-27T17:16:21.221Z,3.50
2022-07-27T17:19:07.874Z,4.03
2022-07-27T17:21:54.580Z,4.05
2022-07-27T17:24:42.549Z,3.85
2022-07-27T17:27:31.408Z,3.55
2022-07-27T17:30:18.493Z,3.97
2022-07-27T17:33:05.382Z,3.70
2022-07-27T17:35:51.975Z,3.72
2022-07-27T17:38:42.150Z,4.32
2022-07-27T17:41:31.853Z,3.95
2022-07-27T17:44:18.509Z,3.67
2022-07-27T17:47:05.644Z,3.45
2022-07-27T17:49:52.309Z,3.90
2022-07-27T17:52:40.698Z,3.67
2022-07-27T17:55:27.281Z,3.03
2022-07-27T17:58:17.005Z,2.28
2022-07-27T18:01:04.042Z,2.25
2022-07-27T18:03:50.919Z,1.95
2022-07-27T18:06:37.670Z,2.33
2022-07-27T18:09:24.369Z,2.05
2022-07-27T18:12:11.178Z,2.47
2022-07-27T18:15:16.794Z,1.65
2022-07-27T18:18:04.365Z,1.63
2022-07-27T18:20:53.027Z,1.48
2022-07-27T18:23:40.669Z,2.15
2022-07-27T18:26:27.251Z,1.88
2022-07-27T18:29:16.073Z,2.00
2022-07-27T18:32:04.472Z,1.80
2022-07-27T18:34:51.040Z,2.00
2022-07-27T18:37:37.857Z,1.80
2022-07-27T18:40:24.725Z,1.90
2022-07-27T18:43:11.406Z,1.85
2022-07-27T18:45:58.150Z,1.50
2022-07-27T18:48:47.055Z,1.33
2022-07-27T18:51:37.176Z,1.38
2022-07-27T18:54:24.280Z,1.65
2022-07-27T18:57:11.224Z,1.63
2022-07-27T18:59:58.053Z,2.10
2022-07-27T19:02:44.964Z,1.30
2022-07-27T19:05:41.642Z,1.60
2022-07-27T19:08:28.621Z,1.77
2022-07-27T19:11:15.717Z,1.70
2022-07-27T19:14:04.799Z,1.75
2022-07-27T19:16:51.830Z,1.40
2022-07-27T19:19:38.295Z,1.30
2022-07-27T19:22:27.288Z,1.45
2022-07-27T19:25:16.741Z,1.52
2022-07-27T19:28:03.960Z,1.30
2022-07-27T19:30:51.022Z,1.65
2022-07-27T19:33:37.926Z,1.50
2022-07-27T19:36:24.806Z,1.30
2022-07-27T19:39:17.334Z,1.55
2022-07-27T19:42:04.595Z,1.40
2022-07-27T19:44:51.467Z,1.40
2022-07-27T19:47:38.222Z,1.10
2022-07-27T19:50:24.968Z,1.25
2022-07-27T19:53:11.508Z,1.10
2022-07-27T19:56:00.279Z,1.40
2022-07-27T19:58:46.913Z,1.10
2022-07-27T20:01:34.234Z,1.52
2022-07-27T20:04:20.681Z,1.77
2022-07-27T20:07:09.888Z,1.52
2022-07-27T20:09:56.901Z,1.20
2022-07-27T20:12:44.951Z,1.20
2022-07-27T20:15:32.215Z,1.13
2022-07-27T20:18:21.816Z,1.20
2022-07-27T20:21:20.171Z,1.20
2022-07-27T20:24:10.119Z,1.48
2022-07-27T20:26:57.688Z,1.35
2022-07-27T20:29:45.655Z,1.17
2022-07-27T20:32:32.182Z,1.30
2022-07-27T20:35:19.245Z,1.45
2022-07-27T20:38:05.822Z,1.27
2022-07-27T20:40:53.877Z,1.50
2022-07-27T20:43:40.545Z,1.42
2022-07-27T20:46:28.939Z,1.35
2022-07-27T20:49:16.884Z,1.50
2022-07-27T20:52:04.331Z,1.40
2022-07-27T20:54:52.684Z,1.33
2022-07-27T20:57:39.532Z,1.45
2022-07-27T21:00:29.217Z,1.40
2022-07-27T21:03:17.925Z,1.27
2022-07-27T21:06:04.566Z,1.05
2022-07-27T21:08:51.204Z,1.30
2022-07-27T21:11:39.244Z,1.33
2022-07-27T21:14:25.692Z,1.40
2022-07-27T21:17:12.432Z,1.40
2022-07-27T21:20:00.542Z,1.67
2022-07-27T21:23:07.088Z,1.10
2022-07-27T21:25:53.566Z,1.50
2022-07-27T21:28:40.323Z,1.40
2022-07-27T21:31:29.856Z,1.40
2022-07-27T21:34:18.602Z,1.85
2022-07-27T21:37:06.505Z,1.90
2022-07-27T21:39:52.940Z,2.03
2022-07-27T21:42:39.482Z,1.80
2022-07-27T21:45:26.494Z,1.55
2022-07-27T21:48:13.088Z,1.80
2022-07-27T21:51:00.093Z,1.63
2022-07-27T21:53:48.715Z,1.73
2022-07-27T21:56:41.858Z,1.70
2022-07-27T21:59:29.735Z,1.65
2022-07-27T22:02:16.512Z,2.08
2022-07-27T22:05:03.509Z,1.58
2022-07-27T22:07:50.182Z,1.50
2022-07-27T22:10:38.730Z,1.65
2022-07-27T22:13:25.153Z,1.38
2022-07-27T22:16:13.461Z,1.40
2022-07-27T22:19:00.168Z,1.13
2022-07-27T22:21:48.691Z,1.30
2022-07-27T22:24:35.518Z,1.23
2022-07-27T22:27:23.649Z,1.50
2022-07-27T22:30:10.818Z,1.50
2022-07-27T22:32:57.696Z,1.10
2022-07-27T22:35:44.370Z,1.27
2022-07-27T22:38:31.067Z,1.20
2022-07-27T22:41:17.670Z,1.33
2022-07-27T22:44:05.996Z,0.90
2022-07-27T22:46:52.942Z,0.98
2022-07-27T22:49:39.872Z,0.95
2022-07-27T22:52:26.797Z,0.88
2022-07-27T22:55:13.515Z,1.15
2022-07-27T22:58:00.277Z,1.45
2022-07-27T23:00:48.933Z,1.00
2022-07-27T23:03:35.633Z,1.10
2022-07-27T23:06:22.235Z,1.00
2022-07-27T23:09:09.633Z,1.10
2022-07-27T23:11:56.297Z,1.00
2022-07-27T23:14:43.116Z,1.08
2022-07-27T23:17:37.237Z,1.20
2022-07-27T23:20:23.970Z,0.95
2022-07-27T23:23:16.670Z,1.40
2022-07-27T23:26:03.685Z,1.17
2022-07-27T23:28:50.490Z,1.30
2022-07-27T23:31:37.139Z,1.30
2022-07-27T23:34:28.960Z,1.05
2022-07-27T23:37:15.589Z,0.95
2022-07-27T23:40:03.512Z,1.13
2022-07-27T23:42:50.164Z,1.20
2022-07-27T23:45:37.042Z,1.20
2022-07-27T23:48:25.173Z,1.23
2022-07-27T23:51:18.732Z,1.20
2022-07-27T23:54:05.500Z,1.00
2022-07-27T23:56:52.093Z,0.90
2022-07-27T23:59:38.739Z,1.17
